sensor_id;sensor_type;location;lat;lon;timestamp;temperature;humidity
59301;DHT22;45073;52.740;6.784;2023-12-07T00:00:12;2.60;99.90
59301;DHT22;45073;52.740;6.784;2023-12-07T00:02:38;2.60;99.90
59301;DHT22;45073;52.740;6.784;2023-12-07T00:05:04;2.50;99.90
59301;DHT22;45073;52.740;6.784;2023-12-07T00:07:29;2.50;99.90
59301;DHT22;45073;52.740;6.784;2023-12-07T00:09:55;2.50;99.90
59301;DHT22;45073;52.740;6.784;2023-12-07T00:12:20;2.40;99.90
59301;DHT22;45073;52.740;6.784;2023-12-07T00:14:46;2.40;99.90
59301;DHT22;45073;52.740;6.784;2023-12-07T00:17:12;2.40;99.90
59301;DHT22;45073;52.740;6.784;2023-12-07T00:19:37;2.30;99.90
59301;DHT22;45073;52.740;6.784;2023-12-07T00:22:03;2.30;99.90
59301;DHT22;45073;52.740;6.784;2023-12-07T00:24:28;2.30;99.90
59301;DHT22;45073;52.740;6.784;2023-12-07T00:26:55;2.30;99.90
59301;DHT22;45073;52.740;6.784;2023-12-07T00:29:21;2.20;99.90
59301;DHT22;45073;52.740;6.784;2023-12-07T00:31:47;2.20;99.90
59301;DHT22;45073;52.740;6.784;2023-12-07T00:34:12;2.20;99.90
59301;DHT22;45073;52.740;6.784;2023-12-07T00:36:38;2.10;99.90
59301;DHT22;45073;52.740;6.784;2023-12-07T00:39:06;2.10;99.90
59301;DHT22;45073;52.740;6.784;2023-12-07T00:41:32;2.10;99.90
59301;DHT22;45073;52.740;6.784;2023-12-07T00:43:57;2.10;99.90
59301;DHT22;45073;52.740;6.784;2023-12-07T00:46:23;2.10;99.90
59301;DHT22;45073;52.740;6.784;2023-12-07T00:48:49;2.10;99.90
59301;DHT22;45073;52.740;6.784;2023-12-07T00:51:14;2.10;99.90
59301;DHT22;45073;52.740;6.784;2023-12-07T00:53:41;2.10;99.90
59301;DHT22;45073;52.740;6.784;2023-12-07T00:56:07;2.10;99.90
59301;DHT22;45073;52.740;6.784;2023-12-07T00:58:33;2.10;99.90
59301;DHT22;45073;52.740;6.784;2023-12-07T01:00:58;2.00;99.90
59301;DHT22;45073;52.740;6.784;2023-12-07T01:03:24;2.00;99.90
59301;DHT22;45073;52.740;6.784;2023-12-07T01:05:49;2.00;99.90
59301;DHT22;45073;52.740;6.784;2023-12-07T01:08:15;2.00;99.90
59301;DHT22;45073;52.740;6.784;2023-12-07T01:10:40;1.90;99.90
59301;DHT22;45073;52.740;6.784;2023-12-07T01:13:06;1.90;99.90
59301;DHT22;45073;52.740;6.784;2023-12-07T01:15:32;1.90;99.90
59301;DHT22;45073;52.740;6.784;2023-12-07T01:17:57;1.90;99.90
59301;DHT22;45073;52.740;6.784;2023-12-07T01:20:23;1.90;99.90
59301;DHT22;45073;52.740;6.784;2023-12-07T01:22:48;2.00;99.90
59301;DHT22;45073;52.740;6.784;2023-12-07T01:25:14;1.90;99.90
59301;DHT22;45073;52.740;6.784;2023-12-07T01:27:45;1.90;99.90
59301;DHT22;45073;52.740;6.784;2023-12-07T01:30:11;1.90;99.90
59301;DHT22;45073;52.740;6.784;2023-12-07T01:32:36;2.00;99.90
59301;DHT22;45073;52.740;6.784;2023-12-07T01:35:02;2.00;99.90
59301;DHT22;45073;52.740;6.784;2023-12-07T01:37:28;2.00;99.90
59301;DHT22;45073;52.740;6.784;2023-12-07T01:39:55;1.90;99.90
59301;DHT22;45073;52.740;6.784;2023-12-07T01:42:20;2.00;99.90
59301;DHT22;45073;52.740;6.784;2023-12-07T01:44:46;2.00;99.90
59301;DHT22;45073;52.740;6.784;2023-12-07T01:47:11;2.00;99.90
59301;DHT22;45073;52.740;6.784;2023-12-07T01:49:37;2.00;99.90
59301;DHT22;45073;52.740;6.784;2023-12-07T01:52:04;2.00;99.90
59301;DHT22;45073;52.740;6.784;2023-12-07T01:54:30;2.10;99.90
59301;DHT22;45073;52.740;6.784;2023-12-07T01:56:56;2.10;99.90
59301;DHT22;45073;52.740;6.784;2023-12-07T01:59:23;2.10;99.90
59301;DHT22;45073;52.740;6.784;2023-12-07T02:01:49;2.10;99.90
59301;DHT22;45073;52.740;6.784;2023-12-07T02:04:16;2.10;99.90
59301;DHT22;45073;52.740;6.784;2023-12-07T02:06:42;2.10;99.90
59301;DHT22;45073;52.740;6.784;2023-12-07T02:09:08;2.20;99.90
59301;DHT22;45073;52.740;6.784;2023-12-07T02:11:34;2.10;99.90
59301;DHT22;45073;52.740;6.784;2023-12-07T02:14:00;2.20;99.90
59301;DHT22;45073;52.740;6.784;2023-12-07T02:16:46;2.20;99.90
59301;DHT22;45073;52.740;6.784;2023-12-07T02:22:12;2.20;99.90
59301;DHT22;45073;52.740;6.784;2023-12-07T02:24:48;2.10;99.90
59301;DHT22;45073;52.740;6.784;2023-12-07T02:27:20;2.10;99.90
59301;DHT22;45073;52.740;6.784;2023-12-07T02:29:57;2.10;99.90
59301;DHT22;45073;52.740;6.784;2023-12-07T02:32:23;2.10;99.90
59301;DHT22;45073;52.740;6.784;2023-12-07T02:34:49;2.10;99.90
59301;DHT22;45073;52.740;6.784;2023-12-07T02:37:14;2.10;99.90
59301;DHT22;45073;52.740;6.784;2023-12-07T02:39:41;2.10;99.90
59301;DHT22;45073;52.740;6.784;2023-12-07T02:42:07;2.10;99.90
59301;DHT22;45073;52.740;6.784;2023-12-07T02:44:33;2.10;99.90
59301;DHT22;45073;52.740;6.784;2023-12-07T02:46:59;2.10;99.90
59301;DHT22;45073;52.740;6.784;2023-12-07T02:49:24;2.10;99.90
59301;DHT22;45073;52.740;6.784;2023-12-07T02:51:50;2.10;99.90
59301;DHT22;45073;52.740;6.784;2023-12-07T02:54:16;2.00;99.90
59301;DHT22;45073;52.740;6.784;2023-12-07T02:56:41;2.00;99.90
59301;DHT22;45073;52.740;6.784;2023-12-07T02:59:07;2.00;99.90
59301;DHT22;45073;52.740;6.784;2023-12-07T03:01:32;2.00;99.90
59301;DHT22;45073;52.740;6.784;2023-12-07T03:03:58;1.90;99.90
59301;DHT22;45073;52.740;6.784;2023-12-07T03:06:23;1.90;99.90
59301;DHT22;45073;52.740;6.784;2023-12-07T03:08:49;1.90;99.90
59301;DHT22;45073;52.740;6.784;2023-12-07T03:11:14;1.90;99.90
59301;DHT22;45073;52.740;6.784;2023-12-07T03:13:40;1.90;99.90
59301;DHT22;45073;52.740;6.784;2023-12-07T03:16:09;1.80;99.90
59301;DHT22;45073;52.740;6.784;2023-12-07T03:18:36;1.80;99.90
59301;DHT22;45073;52.740;6.784;2023-12-07T03:21:02;1.80;99.90
59301;DHT22;45073;52.740;6.784;2023-12-07T03:23:28;1.70;99.90
59301;DHT22;45073;52.740;6.784;2023-12-07T03:25:54;1.70;99.90
59301;DHT22;45073;52.740;6.784;2023-12-07T03:28:19;1.70;99.90
59301;DHT22;45073;52.740;6.784;2023-12-07T03:30:45;1.70;99.90
59301;DHT22;45073;52.740;6.784;2023-12-07T03:33:10;1.70;99.90
59301;DHT22;45073;52.740;6.784;2023-12-07T03:35:36;1.70;99.90
59301;DHT22;45073;52.740;6.784;2023-12-07T03:38:02;1.70;99.90
59301;DHT22;45073;52.740;6.784;2023-12-07T03:40:27;1.70;99.90
59301;DHT22;45073;52.740;6.784;2023-12-07T03:42:53;1.70;99.90
59301;DHT22;45073;52.740;6.784;2023-12-07T03:45:18;1.70;99.90
59301;DHT22;45073;52.740;6.784;2023-12-07T03:47:44;1.70;99.90
59301;DHT22;45073;52.740;6.784;2023-12-07T03:50:10;1.70;99.90
59301;DHT22;45073;52.740;6.784;2023-12-07T03:52:35;1.60;99.90
59301;DHT22;45073;52.740;6.784;2023-12-07T03:55:01;1.60;99.90
59301;DHT22;45073;52.740;6.784;2023-12-07T03:57:27;1.60;99.90
59301;DHT22;45073;52.740;6.784;2023-12-07T03:59:52;1.60;99.90
59301;DHT22;45073;52.740;6.784;2023-12-07T04:02:19;1.60;99.90
59301;DHT22;45073;52.740;6.784;2023-12-07T04:04:44;1.60;99.90
59301;DHT22;45073;52.740;6.784;2023-12-07T04:07:10;1.60;99.90
59301;DHT22;45073;52.740;6.784;2023-12-07T04:09:35;1.60;99.90
59301;DHT22;45073;52.740;6.784;2023-12-07T04:12:01;1.60;99.90
59301;DHT22;45073;52.740;6.784;2023-12-07T04:14:27;1.50;99.90
59301;DHT22;45073;52.740;6.784;2023-12-07T04:16:53;1.50;99.90
59301;DHT22;45073;52.740;6.784;2023-12-07T04:19:18;1.50;99.90
59301;DHT22;45073;52.740;6.784;2023-12-07T04:21:44;1.50;99.90
59301;DHT22;45073;52.740;6.784;2023-12-07T04:24:10;1.50;99.90
59301;DHT22;45073;52.740;6.784;2023-12-07T04:26:35;1.40;99.90
59301;DHT22;45073;52.740;6.784;2023-12-07T04:29:01;1.40;99.90
59301;DHT22;45073;52.740;6.784;2023-12-07T04:31:26;1.40;99.90
59301;DHT22;45073;52.740;6.784;2023-12-07T04:33:52;1.40;99.90
59301;DHT22;45073;52.740;6.784;2023-12-07T04:36:18;1.40;99.90
59301;DHT22;45073;52.740;6.784;2023-12-07T04:38:43;1.40;99.90
59301;DHT22;45073;52.740;6.784;2023-12-07T04:41:09;1.30;99.90
59301;DHT22;45073;52.740;6.784;2023-12-07T04:43:34;1.30;99.90
59301;DHT22;45073;52.740;6.784;2023-12-07T04:46:00;1.30;99.90
59301;DHT22;45073;52.740;6.784;2023-12-07T04:48:25;1.30;99.90
59301;DHT22;45073;52.740;6.784;2023-12-07T04:50:51;1.30;99.90
59301;DHT22;45073;52.740;6.784;2023-12-07T04:53:17;1.30;99.90
59301;DHT22;45073;52.740;6.784;2023-12-07T04:55:43;1.30;99.90
59301;DHT22;45073;52.740;6.784;2023-12-07T04:58:13;1.30;99.90
59301;DHT22;45073;52.740;6.784;2023-12-07T05:00:38;1.30;99.90
59301;DHT22;45073;52.740;6.784;2023-12-07T05:03:04;1.30;99.90
59301;DHT22;45073;52.740;6.784;2023-12-07T05:05:29;1.40;99.90
59301;DHT22;45073;52.740;6.784;2023-12-07T05:07:55;1.30;99.90
59301;DHT22;45073;52.740;6.784;2023-12-07T05:10:21;1.30;99.90
59301;DHT22;45073;52.740;6.784;2023-12-07T05:12:46;1.30;99.90
59301;DHT22;45073;52.740;6.784;2023-12-07T05:15:12;1.30;99.90
59301;DHT22;45073;52.740;6.784;2023-12-07T05:17:38;1.30;99.90
59301;DHT22;45073;52.740;6.784;2023-12-07T05:20:04;1.30;99.90
59301;DHT22;45073;52.740;6.784;2023-12-07T05:22:30;1.30;99.90
59301;DHT22;45073;52.740;6.784;2023-12-07T05:24:56;1.30;99.90
59301;DHT22;45073;52.740;6.784;2023-12-07T05:27:21;1.30;99.90
59301;DHT22;45073;52.740;6.784;2023-12-07T05:29:47;1.30;99.90
59301;DHT22;45073;52.740;6.784;2023-12-07T05:32:13;1.30;99.90
59301;DHT22;45073;52.740;6.784;2023-12-07T05:34:38;1.40;99.90
59301;DHT22;45073;52.740;6.784;2023-12-07T05:37:04;1.30;99.90
59301;DHT22;45073;52.740;6.784;2023-12-07T05:39:30;1.30;99.90
59301;DHT22;45073;52.740;6.784;2023-12-07T05:41:55;1.30;99.90
59301;DHT22;45073;52.740;6.784;2023-12-07T05:44:21;1.30;99.90
59301;DHT22;45073;52.740;6.784;2023-12-07T05:46:47;1.30;99.90
59301;DHT22;45073;52.740;6.784;2023-12-07T05:49:13;1.30;99.90
59301;DHT22;45073;52.740;6.784;2023-12-07T05:51:38;1.30;99.90
59301;DHT22;45073;52.740;6.784;2023-12-07T05:54:05;1.40;99.90
59301;DHT22;45073;52.740;6.784;2023-12-07T05:56:31;1.40;99.90
59301;DHT22;45073;52.740;6.784;2023-12-07T05:58:57;1.40;99.90
59301;DHT22;45073;52.740;6.784;2023-12-07T06:01:22;1.40;99.90
59301;DHT22;45073;52.740;6.784;2023-12-07T06:03:50;1.40;99.90
59301;DHT22;45073;52.740;6.784;2023-12-07T06:06:15;1.50;99.90
59301;DHT22;45073;52.740;6.784;2023-12-07T06:08:41;1.50;99.90
59301;DHT22;45073;52.740;6.784;2023-12-07T06:11:07;1.40;99.90
59301;DHT22;45073;52.740;6.784;2023-12-07T06:13:32;1.50;99.90
59301;DHT22;45073;52.740;6.784;2023-12-07T06:15:59;1.50;99.90
59301;DHT22;45073;52.740;6.784;2023-12-07T06:18:25;1.50;99.90
59301;DHT22;45073;52.740;6.784;2023-12-07T06:20:50;1.50;99.90
59301;DHT22;45073;52.740;6.784;2023-12-07T06:23:16;1.50;99.90
59301;DHT22;45073;52.740;6.784;2023-12-07T06:25:41;1.50;99.90
59301;DHT22;45073;52.740;6.784;2023-12-07T06:28:07;1.60;99.90
59301;DHT22;45073;52.740;6.784;2023-12-07T06:30:33;1.50;99.90
59301;DHT22;45073;52.740;6.784;2023-12-07T06:32:59;1.60;99.90
59301;DHT22;45073;52.740;6.784;2023-12-07T06:35:25;1.60;99.90
59301;DHT22;45073;52.740;6.784;2023-12-07T06:37:50;1.60;99.90
59301;DHT22;45073;52.740;6.784;2023-12-07T06:40:16;1.60;99.90
59301;DHT22;45073;52.740;6.784;2023-12-07T06:42:42;1.60;99.90
59301;DHT22;45073;52.740;6.784;2023-12-07T06:45:08;1.70;99.90
59301;DHT22;45073;52.740;6.784;2023-12-07T06:47:39;1.70;99.90
59301;DHT22;45073;52.740;6.784;2023-12-07T06:50:06;1.70;99.90
59301;DHT22;45073;52.740;6.784;2023-12-07T06:52:39;1.70;99.90
59301;DHT22;45073;52.740;6.784;2023-12-07T06:55:05;1.70;99.90
59301;DHT22;45073;52.740;6.784;2023-12-07T06:57:32;1.70;99.90
59301;DHT22;45073;52.740;6.784;2023-12-07T06:59:57;1.80;99.90
59301;DHT22;45073;52.740;6.784;2023-12-07T07:02:23;1.70;99.90
59301;DHT22;45073;52.740;6.784;2023-12-07T07:04:49;1.70;99.90
59301;DHT22;45073;52.740;6.784;2023-12-07T07:07:15;1.80;99.90
59301;DHT22;45073;52.740;6.784;2023-12-07T07:09:41;1.80;99.90
59301;DHT22;45073;52.740;6.784;2023-12-07T07:12:07;1.80;99.90
59301;DHT22;45073;52.740;6.784;2023-12-07T07:14:32;1.80;99.90
59301;DHT22;45073;52.740;6.784;2023-12-07T07:16:58;1.70;99.90
59301;DHT22;45073;52.740;6.784;2023-12-07T07:19:24;1.70;99.90
59301;DHT22;45073;52.740;6.784;2023-12-07T07:21:49;1.70;99.90
59301;DHT22;45073;52.740;6.784;2023-12-07T07:24:15;1.70;99.90
59301;DHT22;45073;52.740;6.784;2023-12-07T07:26:41;1.70;99.90
59301;DHT22;45073;52.740;6.784;2023-12-07T07:29:06;1.80;99.90
59301;DHT22;45073;52.740;6.784;2023-12-07T07:31:32;1.70;99.90
59301;DHT22;45073;52.740;6.784;2023-12-07T07:33:58;1.80;99.90
59301;DHT22;45073;52.740;6.784;2023-12-07T07:36:23;1.80;99.90
59301;DHT22;45073;52.740;6.784;2023-12-07T07:38:49;1.80;99.90
59301;DHT22;45073;52.740;6.784;2023-12-07T07:41:14;1.70;99.90
59301;DHT22;45073;52.740;6.784;2023-12-07T07:43:40;1.70;99.90
59301;DHT22;45073;52.740;6.784;2023-12-07T07:46:06;1.80;99.90
59301;DHT22;45073;52.740;6.784;2023-12-07T07:48:32;1.80;99.90
59301;DHT22;45073;52.740;6.784;2023-12-07T07:50:57;1.80;99.90
59301;DHT22;45073;52.740;6.784;2023-12-07T07:53:24;1.80;99.90
59301;DHT22;45073;52.740;6.784;2023-12-07T07:55:49;1.80;99.90
59301;DHT22;45073;52.740;6.784;2023-12-07T07:58:15;1.80;99.90
59301;DHT22;45073;52.740;6.784;2023-12-07T08:00:40;1.70;99.90
59301;DHT22;45073;52.740;6.784;2023-12-07T08:03:06;1.70;99.90
59301;DHT22;45073;52.740;6.784;2023-12-07T08:05:32;1.70;99.90
59301;DHT22;45073;52.740;6.784;2023-12-07T08:07:58;1.70;99.90
59301;DHT22;45073;52.740;6.784;2023-12-07T08:10:24;1.70;99.90
59301;DHT22;45073;52.740;6.784;2023-12-07T08:12:50;1.70;99.90
59301;DHT22;45073;52.740;6.784;2023-12-07T08:15:16;1.70;99.90
59301;DHT22;45073;52.740;6.784;2023-12-07T08:17:42;1.70;99.90
59301;DHT22;45073;52.740;6.784;2023-12-07T08:20:08;1.70;99.90
59301;DHT22;45073;52.740;6.784;2023-12-07T08:22:39;1.70;99.90
59301;DHT22;45073;52.740;6.784;2023-12-07T08:25:05;1.70;99.90
59301;DHT22;45073;52.740;6.784;2023-12-07T08:27:34;1.70;99.90
59301;DHT22;45073;52.740;6.784;2023-12-07T08:30:00;1.80;99.90
59301;DHT22;45073;52.740;6.784;2023-12-07T08:32:25;1.70;99.90
59301;DHT22;45073;52.740;6.784;2023-12-07T08:34:51;1.70;99.90
59301;DHT22;45073;52.740;6.784;2023-12-07T08:37:18;1.70;99.90
59301;DHT22;45073;52.740;6.784;2023-12-07T08:39:44;1.70;99.90
59301;DHT22;45073;52.740;6.784;2023-12-07T08:42:10;1.70;99.90
59301;DHT22;45073;52.740;6.784;2023-12-07T08:44:35;1.70;99.90
59301;DHT22;45073;52.740;6.784;2023-12-07T08:47:01;1.70;99.90
59301;DHT22;45073;52.740;6.784;2023-12-07T08:49:27;1.80;99.90
59301;DHT22;45073;52.740;6.784;2023-12-07T08:51:53;1.80;99.90
59301;DHT22;45073;52.740;6.784;2023-12-07T08:54:19;1.70;99.90
59301;DHT22;45073;52.740;6.784;2023-12-07T08:56:45;1.70;99.90
59301;DHT22;45073;52.740;6.784;2023-12-07T08:59:11;1.70;99.90
59301;DHT22;45073;52.740;6.784;2023-12-07T09:01:36;1.70;99.90
59301;DHT22;45073;52.740;6.784;2023-12-07T09:04:02;1.70;99.90
59301;DHT22;45073;52.740;6.784;2023-12-07T09:06:28;1.70;99.90
59301;DHT22;45073;52.740;6.784;2023-12-07T09:08:54;1.60;99.90
59301;DHT22;45073;52.740;6.784;2023-12-07T09:11:20;1.60;99.90
59301;DHT22;45073;52.740;6.784;2023-12-07T09:13:46;1.50;99.90
59301;DHT22;45073;52.740;6.784;2023-12-07T09:16:12;1.50;99.90
59301;DHT22;45073;52.740;6.784;2023-12-07T09:18:37;1.50;99.90
59301;DHT22;45073;52.740;6.784;2023-12-07T09:21:03;1.40;99.90
59301;DHT22;45073;52.740;6.784;2023-12-07T09:23:31;1.40;99.90
59301;DHT22;45073;52.740;6.784;2023-12-07T09:28:34;1.40;99.90
59301;DHT22;45073;52.740;6.784;2023-12-07T09:31:00;1.40;99.90
59301;DHT22;45073;52.740;6.784;2023-12-07T09:33:26;1.40;99.90
59301;DHT22;45073;52.740;6.784;2023-12-07T09:35:51;1.40;99.90
59301;DHT22;45073;52.740;6.784;2023-12-07T09:38:17;1.40;99.90
59301;DHT22;45073;52.740;6.784;2023-12-07T09:40:43;1.40;99.90
59301;DHT22;45073;52.740;6.784;2023-12-07T09:43:09;1.40;99.90
59301;DHT22;45073;52.740;6.784;2023-12-07T09:45:35;1.30;99.90
59301;DHT22;45073;52.740;6.784;2023-12-07T09:48:01;1.30;99.90
59301;DHT22;45073;52.740;6.784;2023-12-07T09:50:28;1.40;99.90
59301;DHT22;45073;52.740;6.784;2023-12-07T09:52:55;1.40;99.90
59301;DHT22;45073;52.740;6.784;2023-12-07T09:55:22;1.40;99.90
59301;DHT22;45073;52.740;6.784;2023-12-07T09:57:49;1.40;99.90
59301;DHT22;45073;52.740;6.784;2023-12-07T10:00:15;1.40;99.90
59301;DHT22;45073;52.740;6.784;2023-12-07T10:02:42;1.40;99.90
59301;DHT22;45073;52.740;6.784;2023-12-07T10:05:12;1.40;99.90
59301;DHT22;45073;52.740;6.784;2023-12-07T10:07:48;1.40;99.90
59301;DHT22;45073;52.740;6.784;2023-12-07T10:10:15;1.40;99.90
59301;DHT22;45073;52.740;6.784;2023-12-07T10:15:14;1.50;99.90
59301;DHT22;45073;52.740;6.784;2023-12-07T10:17:50;1.60;99.90
59301;DHT22;45073;52.740;6.784;2023-12-07T10:20:17;1.60;99.90
59301;DHT22;45073;52.740;6.784;2023-12-07T10:22:47;1.60;99.90
59301;DHT22;45073;52.740;6.784;2023-12-07T10:25:12;1.70;99.90
59301;DHT22;45073;52.740;6.784;2023-12-07T10:27:41;1.70;99.90
59301;DHT22;45073;52.740;6.784;2023-12-07T10:30:09;1.70;99.90
59301;DHT22;45073;52.740;6.784;2023-12-07T10:32:39;1.70;99.90
59301;DHT22;45073;52.740;6.784;2023-12-07T10:35:06;1.80;99.90
59301;DHT22;45073;52.740;6.784;2023-12-07T10:37:32;1.80;99.90
59301;DHT22;45073;52.740;6.784;2023-12-07T10:39:58;1.80;99.90
59301;DHT22;45073;52.740;6.784;2023-12-07T10:42:24;1.80;99.90
59301;DHT22;45073;52.740;6.784;2023-12-07T10:44:53;1.90;99.90
59301;DHT22;45073;52.740;6.784;2023-12-07T10:47:23;1.90;99.90
59301;DHT22;45073;52.740;6.784;2023-12-07T10:49:52;1.90;99.90
59301;DHT22;45073;52.740;6.784;2023-12-07T10:52:24;1.90;99.90
59301;DHT22;45073;52.740;6.784;2023-12-07T10:57:33;2.00;99.90
59301;DHT22;45073;52.740;6.784;2023-12-07T11:00:00;2.00;99.90
59301;DHT22;45073;52.740;6.784;2023-12-07T11:02:29;2.10;99.90
59301;DHT22;45073;52.740;6.784;2023-12-07T11:04:58;2.00;99.90
59301;DHT22;45073;52.740;6.784;2023-12-07T11:07:33;2.10;99.90
59301;DHT22;45073;52.740;6.784;2023-12-07T11:10:11;2.00;99.90
59301;DHT22;45073;52.740;6.784;2023-12-07T11:12:47;2.00;99.90
59301;DHT22;45073;52.740;6.784;2023-12-07T11:15:16;2.00;99.90
59301;DHT22;45073;52.740;6.784;2023-12-07T11:17:50;2.00;99.90
59301;DHT22;45073;52.740;6.784;2023-12-07T11:23:05;2.10;99.90
59301;DHT22;45073;52.740;6.784;2023-12-07T11:25:30;2.00;99.90
59301;DHT22;45073;52.740;6.784;2023-12-07T11:28:04;2.00;99.90
59301;DHT22;45073;52.740;6.784;2023-12-07T11:30:31;2.10;99.90
59301;DHT22;45073;52.740;6.784;2023-12-07T11:32:58;2.10;99.90
59301;DHT22;45073;52.740;6.784;2023-12-07T11:35:23;2.10;99.90
59301;DHT22;45073;52.740;6.784;2023-12-07T11:38:07;2.10;99.90
59301;DHT22;45073;52.740;6.784;2023-12-07T11:40:37;2.10;99.90
59301;DHT22;45073;52.740;6.784;2023-12-07T11:43:05;2.10;99.90
59301;DHT22;45073;52.740;6.784;2023-12-07T11:45:41;2.10;99.90
59301;DHT22;45073;52.740;6.784;2023-12-07T11:48:14;2.10;99.90
59301;DHT22;45073;52.740;6.784;2023-12-07T11:53:28;2.20;99.90
59301;DHT22;45073;52.740;6.784;2023-12-07T11:55:56;2.20;99.90
59301;DHT22;45073;52.740;6.784;2023-12-07T11:58:29;2.20;99.90
59301;DHT22;45073;52.740;6.784;2023-12-07T12:00:55;2.20;99.90
59301;DHT22;45073;52.740;6.784;2023-12-07T12:03:22;2.20;99.90
59301;DHT22;45073;52.740;6.784;2023-12-07T12:05:48;2.20;99.90
59301;DHT22;45073;52.740;6.784;2023-12-07T12:08:15;2.20;99.90
59301;DHT22;45073;52.740;6.784;2023-12-07T12:10:41;2.20;99.90
59301;DHT22;45073;52.740;6.784;2023-12-07T12:13:08;2.20;99.90
59301;DHT22;45073;52.740;6.784;2023-12-07T12:15:34;2.20;99.90
59301;DHT22;45073;52.740;6.784;2023-12-07T12:18:00;2.20;99.90
59301;DHT22;45073;52.740;6.784;2023-12-07T12:20:27;2.30;99.90
59301;DHT22;45073;52.740;6.784;2023-12-07T12:22:54;2.30;99.90
59301;DHT22;45073;52.740;6.784;2023-12-07T12:25:24;2.30;99.90
59301;DHT22;45073;52.740;6.784;2023-12-07T12:28:03;2.30;99.90
59301;DHT22;45073;52.740;6.784;2023-12-07T12:30:29;2.40;99.90
59301;DHT22;45073;52.740;6.784;2023-12-07T12:32:56;2.40;99.90
59301;DHT22;45073;52.740;6.784;2023-12-07T12:35:22;2.40;99.90
59301;DHT22;45073;52.740;6.784;2023-12-07T12:37:49;2.50;99.90
59301;DHT22;45073;52.740;6.784;2023-12-07T12:40:19;2.50;99.90
59301;DHT22;45073;52.740;6.784;2023-12-07T12:42:47;2.50;99.90
59301;DHT22;45073;52.740;6.784;2023-12-07T12:45:14;2.60;99.90
59301;DHT22;45073;52.740;6.784;2023-12-07T12:47:43;2.60;99.90
59301;DHT22;45073;52.740;6.784;2023-12-07T12:50:10;2.60;99.90
59301;DHT22;45073;52.740;6.784;2023-12-07T12:52:36;2.70;99.90
59301;DHT22;45073;52.740;6.784;2023-12-07T12:55:10;2.70;99.90
59301;DHT22;45073;52.740;6.784;2023-12-07T12:57:36;2.70;99.90
59301;DHT22;45073;52.740;6.784;2023-12-07T13:00:03;2.70;99.90
59301;DHT22;45073;52.740;6.784;2023-12-07T13:02:29;2.80;99.90
59301;DHT22;45073;52.740;6.784;2023-12-07T13:04:55;2.80;99.90
59301;DHT22;45073;52.740;6.784;2023-12-07T13:07:21;2.80;99.90
59301;DHT22;45073;52.740;6.784;2023-12-07T13:09:50;2.80;99.90
59301;DHT22;45073;52.740;6.784;2023-12-07T13:12:15;2.90;99.90
59301;DHT22;45073;52.740;6.784;2023-12-07T13:14:41;2.90;99.90
59301;DHT22;45073;52.740;6.784;2023-12-07T13:17:07;2.90;99.90
59301;DHT22;45073;52.740;6.784;2023-12-07T13:19:33;2.90;99.90
59301;DHT22;45073;52.740;6.784;2023-12-07T13:21:59;2.90;99.90
59301;DHT22;45073;52.740;6.784;2023-12-07T13:24:25;3.00;99.90
59301;DHT22;45073;52.740;6.784;2023-12-07T13:26:51;3.00;99.90
59301;DHT22;45073;52.740;6.784;2023-12-07T13:29:16;3.00;99.90
59301;DHT22;45073;52.740;6.784;2023-12-07T13:31:42;3.00;99.90
59301;DHT22;45073;52.740;6.784;2023-12-07T13:34:08;3.10;99.90
59301;DHT22;45073;52.740;6.784;2023-12-07T13:36:33;3.10;99.90
59301;DHT22;45073;52.740;6.784;2023-12-07T13:39:00;3.10;99.90
59301;DHT22;45073;52.740;6.784;2023-12-07T13:41:29;3.10;99.90
59301;DHT22;45073;52.740;6.784;2023-12-07T13:43:54;3.10;99.90
59301;DHT22;45073;52.740;6.784;2023-12-07T13:46:20;3.20;99.90
59301;DHT22;45073;52.740;6.784;2023-12-07T13:48:46;3.20;99.90
59301;DHT22;45073;52.740;6.784;2023-12-07T13:51:15;3.20;99.90
59301;DHT22;45073;52.740;6.784;2023-12-07T13:53:41;3.20;99.90
59301;DHT22;45073;52.740;6.784;2023-12-07T13:56:07;3.20;99.90
59301;DHT22;45073;52.740;6.784;2023-12-07T13:58:33;3.30;99.90
59301;DHT22;45073;52.740;6.784;2023-12-07T14:01:00;3.30;99.90
59301;DHT22;45073;52.740;6.784;2023-12-07T14:03:27;3.30;99.90
59301;DHT22;45073;52.740;6.784;2023-12-07T14:05:52;3.30;99.90
59301;DHT22;45073;52.740;6.784;2023-12-07T14:08:18;3.40;99.90
59301;DHT22;45073;52.740;6.784;2023-12-07T14:10:44;3.40;99.90
59301;DHT22;45073;52.740;6.784;2023-12-07T14:13:10;3.40;99.90
59301;DHT22;45073;52.740;6.784;2023-12-07T14:15:36;3.50;99.90
59301;DHT22;45073;52.740;6.784;2023-12-07T14:18:02;3.50;99.90
59301;DHT22;45073;52.740;6.784;2023-12-07T14:20:28;3.50;99.90
59301;DHT22;45073;52.740;6.784;2023-12-07T14:22:55;3.50;99.90
59301;DHT22;45073;52.740;6.784;2023-12-07T14:25:21;3.50;99.90
59301;DHT22;45073;52.740;6.784;2023-12-07T14:27:46;3.60;99.90
59301;DHT22;45073;52.740;6.784;2023-12-07T14:30:12;3.50;99.90
59301;DHT22;45073;52.740;6.784;2023-12-07T14:32:38;3.60;99.90
59301;DHT22;45073;52.740;6.784;2023-12-07T14:35:07;3.60;99.90
59301;DHT22;45073;52.740;6.784;2023-12-07T14:37:32;3.60;99.90
59301;DHT22;45073;52.740;6.784;2023-12-07T14:39:58;3.60;99.90
59301;DHT22;45073;52.740;6.784;2023-12-07T14:42:24;3.60;99.90
59301;DHT22;45073;52.740;6.784;2023-12-07T14:44:49;3.60;99.90
59301;DHT22;45073;52.740;6.784;2023-12-07T14:47:15;3.60;99.90
59301;DHT22;45073;52.740;6.784;2023-12-07T14:49:41;3.60;99.90
59301;DHT22;45073;52.740;6.784;2023-12-07T14:52:07;3.60;99.90
59301;DHT22;45073;52.740;6.784;2023-12-07T14:54:32;3.60;99.90
59301;DHT22;45073;52.740;6.784;2023-12-07T14:57:01;3.60;99.90
59301;DHT22;45073;52.740;6.784;2023-12-07T14:59:28;3.60;99.90
59301;DHT22;45073;52.740;6.784;2023-12-07T15:01:54;3.60;99.90
59301;DHT22;45073;52.740;6.784;2023-12-07T15:04:20;3.60;99.90
59301;DHT22;45073;52.740;6.784;2023-12-07T15:06:45;3.60;99.90
59301;DHT22;45073;52.740;6.784;2023-12-07T15:09:11;3.60;99.90
59301;DHT22;45073;52.740;6.784;2023-12-07T15:11:37;3.60;99.90
59301;DHT22;45073;52.740;6.784;2023-12-07T15:14:02;3.60;99.90
59301;DHT22;45073;52.740;6.784;2023-12-07T15:16:29;3.60;99.90
59301;DHT22;45073;52.740;6.784;2023-12-07T15:18:55;3.50;99.90
59301;DHT22;45073;52.740;6.784;2023-12-07T15:21:20;3.60;99.90
59301;DHT22;45073;52.740;6.784;2023-12-07T15:23:46;3.60;99.90
59301;DHT22;45073;52.740;6.784;2023-12-07T15:26:12;3.50;99.90
59301;DHT22;45073;52.740;6.784;2023-12-07T15:28:38;3.50;99.90
59301;DHT22;45073;52.740;6.784;2023-12-07T15:31:06;3.50;99.90
59301;DHT22;45073;52.740;6.784;2023-12-07T15:33:33;3.50;99.90
59301;DHT22;45073;52.740;6.784;2023-12-07T15:35:59;3.50;99.90
59301;DHT22;45073;52.740;6.784;2023-12-07T15:38:26;3.50;99.90
59301;DHT22;45073;52.740;6.784;2023-12-07T15:40:52;3.40;99.90
59301;DHT22;45073;52.740;6.784;2023-12-07T15:43:20;3.40;99.90
59301;DHT22;45073;52.740;6.784;2023-12-07T15:45:45;3.50;99.90
59301;DHT22;45073;52.740;6.784;2023-12-07T15:48:11;3.40;99.90
59301;DHT22;45073;52.740;6.784;2023-12-07T15:50:37;3.40;99.90
59301;DHT22;45073;52.740;6.784;2023-12-07T15:53:05;3.40;99.90
59301;DHT22;45073;52.740;6.784;2023-12-07T15:55:31;3.40;99.90